Time;durP1;ratioP1;P1;durP2;ratioP2;P2;SDS_P1;SDS_P2;PMS_P1;PMS_P2;Temp;Humidity;BMP_temperature;BMP_pressure;BME280_temperature;BME280_humidity;BME280_pressure;Samples;Min_cycle;Max_cycle;Signal;HPM_P1;HPM_P2
2021/06/28 00:01:38;;;;;;;2.30;1.00;;;24.50;70.10;;;;;;2588185;52;20917;-65
2021/06/28 00:04:04;;;;;;;2.30;1.30;;;24.50;70.00;;;;;;2352142;53;20945;-65
2021/06/28 00:06:30;;;;;;;2.35;1.05;;;24.50;69.90;;;;;;2346617;53;20969;-67
2021/06/28 00:08:58;;;;;;;2.15;1.00;;;24.40;69.80;;;;;;2587389;52;21021;-69
2021/06/28 00:11:26;;;;;;;2.00;0.90;;;24.40;69.60;;;;;;2349661;53;20982;-65
2021/06/28 00:13:54;;;;;;;3.72;1.40;;;24.40;69.60;;;;;;2349841;53;21006;-64
2021/06/28 00:16:23;;;;;;;2.10;1.10;;;24.30;69.50;;;;;;2352348;53;21842;-64
2021/06/28 00:18:51;;;;;;;1.92;1.08;;;24.30;69.60;;;;;;2587534;52;20993;-66
2021/06/28 00:21:20;;;;;;;2.10;1.05;;;24.30;69.90;;;;;;2343535;53;20967;-65
2021/06/28 00:23:46;;;;;;;2.60;1.12;;;24.20;70.00;;;;;;2350440;53;21415;-65
2021/06/28 00:26:12;;;;;;;2.30;1.25;;;24.20;70.20;;;;;;2349551;53;20966;-65
2021/06/28 00:28:39;;;;;;;2.35;1.20;;;24.10;70.10;;;;;;2587876;52;21391;-68
2021/06/28 00:31:08;;;;;;;2.50;1.30;;;24.10;70.20;;;;;;2345495;53;20933;-66
2021/06/28 00:33:36;;;;;;;2.47;1.42;;;24.10;70.00;;;;;;2345216;54;21532;-65
2021/06/28 00:36:06;;;;;;;2.33;1.10;;;24.10;70.20;;;;;;2349401;53;21355;-65
2021/06/28 00:38:33;;;;;;;2.17;1.05;;;24.00;70.10;;;;;;2354183;53;20962;-66
2021/06/28 00:41:00;;;;;;;2.80;1.12;;;24.00;70.30;;;;;;2348822;53;20926;-65
2021/06/28 00:43:26;;;;;;;2.10;1.08;;;24.00;70.40;;;;;;2344051;53;20936;-68
2021/06/28 00:45:52;;;;;;;2.40;1.00;;;24.00;70.40;;;;;;2325374;54;20968;-65
2021/06/28 00:48:19;;;;;;;2.30;1.20;;;23.90;70.20;;;;;;2350185;53;20943;-66
2021/06/28 00:50:50;;;;;;;1.75;0.95;;;23.90;70.00;;;;;;2532492;52;20948;-67
2021/06/28 00:53:18;;;;;;;2.70;1.30;;;23.90;69.80;;;;;;2590336;52;20925;-66
2021/06/28 00:55:44;;;;;;;2.20;1.10;;;23.80;69.80;;;;;;2587995;52;21027;-65
2021/06/28 00:58:13;;;;;;;1.90;1.00;;;23.80;69.80;;;;;;2345497;53;20986;-65
2021/06/28 01:00:40;;;;;;;2.87;1.10;;;23.80;70.00;;;;;;2351248;53;20963;-65
2021/06/28 01:03:06;;;;;;;2.42;1.10;;;23.80;69.90;;;;;;2589524;52;21869;-65
2021/06/28 01:05:34;;;;;;;2.60;1.17;;;23.70;69.80;;;;;;2347682;53;20976;-64
2021/06/28 01:08:01;;;;;;;1.85;1.05;;;23.70;70.00;;;;;;2349266;53;20993;-65
2021/06/28 01:10:32;;;;;;;2.80;1.00;;;23.60;69.90;;;;;;2587239;52;21062;-66
2021/06/28 01:12:58;;;;;;;2.50;1.10;;;23.60;69.80;;;;;;2345960;53;20935;-66
2021/06/28 01:15:24;;;;;;;3.15;1.17;;;23.60;70.00;;;;;;2347767;53;21059;-65
2021/06/28 01:17:51;;;;;;;1.92;1.00;;;23.50;69.90;;;;;;2351355;53;20986;-64
2021/06/28 01:20:22;;;;;;;2.15;1.00;;;23.50;69.90;;;;;;2589005;52;20922;-64
2021/06/28 01:22:50;;;;;;;2.00;1.00;;;23.50;70.00;;;;;;2346433;53;20986;-66
2021/06/28 01:25:18;;;;;;;2.17;1.10;;;23.40;69.90;;;;;;2348813;53;20958;-66
2021/06/28 01:27:44;;;;;;;2.25;1.15;;;23.40;70.70;;;;;;2348588;53;20958;-66
2021/06/28 01:30:13;;;;;;;2.35;1.00;;;23.40;70.10;;;;;;2346746;53;22212;-65
2021/06/28 01:32:42;;;;;;;2.20;1.10;;;23.30;70.00;;;;;;2325514;53;21012;-65
2021/06/28 01:35:09;;;;;;;2.58;1.10;;;23.30;70.20;;;;;;2350364;53;20973;-67
2021/06/28 01:37:36;;;;;;;2.10;1.12;;;23.30;70.30;;;;;;2348061;53;21022;-67
2021/06/28 01:40:04;;;;;;;2.12;1.10;;;23.30;70.30;;;;;;2345896;53;20926;-67
2021/06/28 01:42:32;;;;;;;3.37;1.02;;;23.30;70.30;;;;;;2346335;53;20917;-64
2021/06/28 01:44:58;;;;;;;1.25;0.65;;;23.20;70.40;;;;;;2350664;53;21022;-65
2021/06/28 01:47:26;;;;;;;1.98;0.85;;;23.20;70.70;;;;;;2344698;54;20924;-64
2021/06/28 01:49:55;;;;;;;1.80;0.90;;;23.20;70.80;;;;;;2347936;53;20979;-65
2021/06/28 01:52:21;;;;;;;1.37;0.70;;;23.20;70.90;;;;;;2349274;53;21855;-68
2021/06/28 01:54:47;;;;;;;1.70;0.88;;;23.20;71.80;;;;;;2348261;53;20914;-68
2021/06/28 01:57:13;;;;;;;2.08;0.80;;;23.20;71.10;;;;;;2351456;53;20977;-69
2021/06/28 01:59:40;;;;;;;2.05;0.98;;;23.20;71.20;;;;;;2350451;53;20990;-68
2021/06/28 02:02:08;;;;;;;1.48;0.70;;;23.20;71.30;;;;;;2347934;53;20942;-70
2021/06/28 02:04:36;;;;;;;2.17;0.80;;;23.20;71.40;;;;;;2348797;53;20934;-67
2021/06/28 02:07:05;;;;;;;1.92;0.80;;;23.30;71.50;;;;;;2345301;53;21037;-67
2021/06/28 02:09:32;;;;;;;1.62;0.80;;;23.30;71.40;;;;;;2345899;53;20938;-68
2021/06/28 02:11:58;;;;;;;1.40;0.73;;;23.30;71.40;;;;;;2348745;53;21001;-67
2021/06/28 02:14:24;;;;;;;2.05;1.00;;;23.30;71.40;;;;;;2346106;53;20934;-67
2021/06/28 02:16:51;;;;;;;1.87;1.00;;;23.30;71.40;;;;;;2349550;53;20994;-67
2021/06/28 02:19:17;;;;;;;2.58;1.00;;;23.30;71.40;;;;;;2348054;53;21010;-67
2021/06/28 02:21:44;;;;;;;2.20;1.10;;;23.30;71.30;;;;;;2432642;52;20948;-68
2021/06/28 02:24:10;;;;;;;2.22;1.20;;;23.30;71.20;;;;;;2345728;53;20956;-67
2021/06/28 02:26:38;;;;;;;2.08;1.20;;;23.20;71.00;;;;;;2351998;53;21017;-67
2021/06/28 02:29:04;;;;;;;1.98;0.95;;;23.20;71.10;;;;;;2345817;53;21912;-67
2021/06/28 02:31:32;;;;;;;1.80;1.00;;;23.20;71.10;;;;;;2344816;54;20969;-67
2021/06/28 02:33:58;;;;;;;2.08;0.88;;;23.20;71.20;;;;;;2348486;53;21803;-67
2021/06/28 02:36:25;;;;;;;3.03;1.00;;;23.20;71.30;;;;;;2354285;53;21022;-68
2021/06/28 02:38:52;;;;;;;1.90;0.80;;;23.20;71.30;;;;;;2346255;53;20958;-68
2021/06/28 02:41:18;;;;;;;1.83;0.80;;;23.20;71.30;;;;;;2349026;53;20970;-69
2021/06/28 02:43:45;;;;;;;1.73;0.70;;;23.20;71.20;;;;;;2342870;53;20972;-67
2021/06/28 02:46:12;;;;;;;1.40;0.70;;;23.20;71.30;;;;;;2588445;52;20962;-70
2021/06/28 02:48:42;;;;;;;2.00;0.90;;;23.20;71.30;;;;;;2586050;52;20990;-67
2021/06/28 02:51:09;;;;;;;1.83;0.70;;;23.20;71.00;;;;;;2589430;52;20928;-70
2021/06/28 02:53:35;;;;;;;1.87;0.80;;;23.20;71.30;;;;;;2560950;53;20938;-67
2021/06/28 02:56:14;;;;;;;2.55;1.05;;;23.20;71.30;;;;;;2348588;53;21506;-70
2021/06/28 02:58:51;;;;;;;2.92;1.10;;;23.20;71.30;;;;;;2346667;53;20966;-67
2021/06/28 03:01:19;;;;;;;2.30;1.20;;;23.20;71.10;;;;;;2346704;53;21061;-70
2021/06/28 03:03:45;;;;;;;3.15;1.20;;;23.10;70.80;;;;;;2346037;53;20918;-67
2021/06/28 03:06:14;;;;;;;3.97;1.40;;;23.10;70.80;;;;;;2327644;53;21038;-67
2021/06/28 03:08:43;;;;;;;1.98;0.95;;;23.10;70.80;;;;;;2348451;53;20927;-70
2021/06/28 03:11:17;;;;;;;2.22;1.17;;;23.10;70.80;;;;;;2350442;53;21005;-68
2021/06/28 03:13:45;;;;;;;2.58;1.02;;;23.00;70.70;;;;;;2346410;53;20973;-69
2021/06/28 03:16:11;;;;;;;2.17;1.10;;;23.00;70.80;;;;;;2346968;53;20920;-68
2021/06/28 03:18:37;;;;;;;1.58;0.73;;;23.00;71.00;;;;;;2349177;53;21018;-70
2021/06/28 03:21:11;;;;;;;3.10;1.00;;;22.90;71.10;;;;;;2345183;53;20962;-69
2021/06/28 03:24:01;;;;;;;1.50;0.70;;;22.90;71.20;;;;;;2589597;52;21023;-67
2021/06/28 03:26:27;;;;;;;1.60;0.73;;;22.90;71.40;;;;;;2344045;53;21465;-64
2021/06/28 03:28:53;;;;;;;1.48;0.77;;;22.90;71.40;;;;;;2588506;52;20962;-67
2021/06/28 03:31:23;;;;;;;2.12;0.80;;;22.90;71.50;;;;;;2349132;53;20945;-67
2021/06/28 03:33:50;;;;;;;1.70;0.80;;;22.90;71.40;;;;;;2350683;53;20994;-70
2021/06/28 03:36:16;;;;;;;1.67;0.75;;;22.90;71.50;;;;;;2345378;53;20936;-67
2021/06/28 03:38:46;;;;;;;1.40;0.73;;;22.90;71.60;;;;;;2346729;53;20947;-67
2021/06/28 03:41:12;;;;;;;2.92;0.90;;;22.90;71.40;;;;;;2350645;53;20929;-68
2021/06/28 03:43:39;;;;;;;1.52;0.80;;;22.90;71.60;;;;;;2348665;53;21030;-67
2021/06/28 03:46:06;;;;;;;2.35;1.08;;;22.90;71.50;;;;;;2344603;53;21009;-69
2021/06/28 03:48:32;;;;;;;2.42;1.10;;;22.80;71.40;;;;;;2349354;53;20930;-67
2021/06/28 03:50:58;;;;;;;1.75;0.90;;;22.90;71.50;;;;;;2348716;53;21409;-67
2021/06/28 03:53:24;;;;;;;2.42;1.17;;;22.80;71.40;;;;;;2342814;53;20924;-69
2021/06/28 03:55:50;;;;;;;2.50;1.08;;;22.90;71.60;;;;;;2344721;54;20929;-69
2021/06/28 03:58:17;;;;;;;1.98;0.85;;;22.80;71.70;;;;;;2347936;53;20938;-67
2021/06/28 04:00:46;;;;;;;1.67;0.80;;;22.90;71.90;;;;;;2346082;53;21045;-68
2021/06/28 04:03:13;;;;;;;1.67;0.88;;;22.90;71.90;;;;;;2586597;52;20962;-67
2021/06/28 04:05:40;;;;;;;1.75;0.88;;;22.90;72.10;;;;;;2347942;54;21288;-67
2021/06/28 04:08:06;;;;;;;2.58;1.00;;;22.90;72.20;;;;;;2347629;53;20982;-68
2021/06/28 04:10:32;;;;;;;2.80;1.25;;;22.90;72.40;;;;;;2352726;53;21003;-69
2021/06/28 04:12:58;;;;;;;2.22;1.30;;;22.90;72.40;;;;;;2345690;53;20958;-66
2021/06/28 04:15:27;;;;;;;2.80;1.40;;;23.00;72.40;;;;;;2349238;53;20946;-68
2021/06/28 04:17:54;;;;;;;2.62;1.15;;;23.00;72.50;;;;;;2346596;53;21655;-68
2021/06/28 04:20:23;;;;;;;2.05;1.10;;;23.00;72.50;;;;;;2587958;52;20934;-67
2021/06/28 04:22:49;;;;;;;2.40;1.10;;;23.00;72.40;;;;;;2358165;52;21016;-68
2021/06/28 04:25:17;;;;;;;3.20;1.20;;;23.00;72.30;;;;;;2347331;53;20998;-67
2021/06/28 04:27:44;;;;;;;2.10;0.98;;;23.10;72.40;;;;;;2352903;53;21042;-67
2021/06/28 04:30:13;;;;;;;2.47;0.98;;;23.10;72.40;;;;;;2345916;53;21014;-67
2021/06/28 04:32:39;;;;;;;2.83;1.08;;;23.10;72.30;;;;;;2345363;54;20916;-68
2021/06/28 04:35:07;;;;;;;2.37;1.00;;;23.10;72.40;;;;;;2349351;53;21001;-67
2021/06/28 04:37:34;;;;;;;4.12;1.20;;;23.10;72.30;;;;;;2345586;53;20961;-67
2021/06/28 04:40:00;;;;;;;2.00;1.00;;;23.10;72.30;;;;;;2350271;53;20962;-68
2021/06/28 04:42:28;;;;;;;1.87;0.80;;;23.20;72.30;;;;;;2349644;53;21034;-67
2021/06/28 04:44:56;;;;;;;3.28;0.93;;;23.20;72.30;;;;;;2345740;53;20942;-69
2021/06/28 04:47:22;;;;;;;1.60;0.80;;;23.20;72.30;;;;;;2348937;53;20986;-69
2021/06/28 04:49:48;;;;;;;2.90;0.80;;;23.20;72.40;;;;;;2347636;53;21462;-67
2021/06/28 04:52:15;;;;;;;3.28;0.93;;;23.20;72.40;;;;;;2346150;53;20970;-67
2021/06/28 04:54:42;;;;;;;1.77;0.88;;;23.20;72.50;;;;;;2349043;53;21867;-68
2021/06/28 04:57:08;;;;;;;2.00;0.90;;;23.30;72.70;;;;;;2345814;53;21028;-67
2021/06/28 04:59:34;;;;;;;2.25;1.23;;;23.30;72.70;;;;;;2589883;52;20938;-68
2021/06/28 05:02:01;;;;;;;1.95;0.93;;;23.30;72.80;;;;;;2388442;52;21045;-68
2021/06/28 05:04:29;;;;;;;2.10;0.82;;;23.30;72.80;;;;;;2347797;54;20928;-69
2021/06/28 05:06:55;;;;;;;2.25;0.98;;;23.30;72.90;;;;;;2343597;53;20932;-69
2021/06/28 05:09:22;;;;;;;2.15;1.00;;;23.40;72.90;;;;;;2346395;53;21026;-67
2021/06/28 05:11:48;;;;;;;2.42;1.10;;;23.40;72.90;;;;;;2347602;53;20997;-69
2021/06/28 05:14:15;;;;;;;2.95;1.10;;;23.40;73.00;;;;;;2353077;53;21003;-68
2021/06/28 05:16:44;;;;;;;2.65;1.08;;;23.50;73.10;;;;;;2345886;53;20930;-68
2021/06/28 05:19:10;;;;;;;2.67;1.20;;;23.50;72.80;;;;;;2330577;53;21999;-67
2021/06/28 05:21:38;;;;;;;2.10;1.02;;;23.50;73.00;;;;;;2348019;53;21022;-67
2021/06/28 05:24:05;;;;;;;4.95;1.30;;;23.60;73.10;;;;;;2348904;53;20962;-67
2021/06/28 05:26:31;;;;;;;1.70;0.85;;;23.60;73.10;;;;;;2343909;53;20958;-68
2021/06/28 05:28:57;;;;;;;2.10;0.90;;;23.60;73.30;;;;;;2346136;53;21013;-68
2021/06/28 05:31:28;;;;;;;2.10;1.00;;;23.70;73.50;;;;;;2346545;53;20954;-69
2021/06/28 05:34:02;;;;;;;1.77;0.95;;;23.80;73.50;;;;;;2432744;53;3210744;-70
2021/06/28 05:36:41;;;;;;;2.55;1.02;;;23.80;73.00;;;;;;2588329;52;20978;-67
2021/06/28 05:39:08;;;;;;;1.80;0.90;;;23.90;72.80;;;;;;2347476;53;20954;-67
2021/06/28 05:41:34;;;;;;;1.83;0.80;;;23.90;73.20;;;;;;2350294;53;20930;-68
2021/06/28 05:44:00;;;;;;;2.00;1.08;;;23.90;73.10;;;;;;2349643;53;20934;-67
2021/06/28 05:46:26;;;;;;;2.05;0.90;;;24.00;73.20;;;;;;2349300;53;20922;-69
2021/06/28 05:48:53;;;;;;;2.10;0.90;;;24.00;73.10;;;;;;2344837;53;20974;-68
2021/06/28 05:51:19;;;;;;;1.70;0.85;;;24.00;73.20;;;;;;2346121;53;20990;-69
2021/06/28 05:53:46;;;;;;;1.75;0.90;;;24.10;73.20;;;;;;2348506;53;20946;-67
2021/06/28 05:56:13;;;;;;;2.00;1.00;;;24.10;73.10;;;;;;2588350;52;21883;-68
2021/06/28 05:58:39;;;;;;;2.50;1.20;;;24.10;73.10;;;;;;2347015;53;20968;-67
2021/06/28 06:01:05;;;;;;;2.30;1.23;;;24.20;73.10;;;;;;2587885;52;20950;-68
2021/06/28 06:03:31;;;;;;;2.87;1.60;;;24.20;73.10;;;;;;2348550;53;20922;-68
2021/06/28 06:06:01;;;;;;;2.72;1.30;;;24.30;73.20;;;;;;2346123;53;20926;-67
2021/06/28 06:08:27;;;;;;;2.17;1.35;;;24.30;72.90;;;;;;2351947;53;20943;-69
2021/06/28 06:10:55;;;;;;;2.20;1.20;;;24.30;73.10;;;;;;2346059;53;20962;-70
2021/06/28 06:13:26;;;;;;;2.60;1.10;;;24.40;73.30;;;;;;2348104;53;20980;-70
2021/06/28 06:15:53;;;;;;;2.20;1.20;;;24.40;73.00;;;;;;2451238;52;20942;-68
2021/06/28 06:18:19;;;;;;;2.30;1.10;;;24.50;73.30;;;;;;2347616;53;20966;-67
2021/06/28 06:20:48;;;;;;;2.28;1.05;;;24.50;73.20;;;;;;2346906;53;20954;-68
2021/06/28 06:23:16;;;;;;;1.70;0.90;;;24.60;73.30;;;;;;2347755;53;20962;-68
2021/06/28 06:25:43;;;;;;;3.60;1.00;;;24.60;73.20;;;;;;2350104;53;21370;-65
2021/06/28 06:28:09;;;;;;;2.85;1.10;;;24.70;73.20;;;;;;2345619;53;21045;-69
2021/06/28 06:30:35;;;;;;;2.30;1.10;;;24.80;73.40;;;;;;2586974;52;21470;-65
2021/06/28 06:33:02;;;;;;;2.50;1.00;;;24.80;73.30;;;;;;2374657;53;21006;-68
2021/06/28 06:35:28;;;;;;;2.80;1.20;;;24.90;73.30;;;;;;2340640;53;20977;-65
2021/06/28 06:37:56;;;;;;;2.33;1.10;;;25.00;73.40;;;;;;2348434;53;20918;-68
2021/06/28 06:40:23;;;;;;;2.45;1.27;;;25.00;73.30;;;;;;2351411;53;20954;-65
2021/06/28 06:42:49;;;;;;;2.00;1.00;;;25.10;73.30;;;;;;2351367;53;21042;-68
2021/06/28 06:45:15;;;;;;;2.62;1.30;;;25.20;73.40;;;;;;2562420;52;20960;-68
2021/06/28 06:47:42;;;;;;;3.62;1.00;;;25.20;73.40;;;;;;2533263;52;21872;-65
2021/06/28 06:50:10;;;;;;;2.28;1.12;;;25.30;73.50;;;;;;2346646;53;20973;-68
2021/06/28 06:52:37;;;;;;;2.50;1.30;;;25.40;73.50;;;;;;2347169;53;20954;-65
2021/06/28 06:55:07;;;;;;;2.28;1.30;;;25.50;73.60;;;;;;2345044;53;21293;-68
2021/06/28 06:57:35;;;;;;;2.08;1.10;;;25.60;73.50;;;;;;2346302;53;20918;-65
2021/06/28 07:00:03;;;;;;;3.03;1.30;;;25.70;73.40;;;;;;2348775;53;20938;-69
2021/06/28 07:02:32;;;;;;;2.80;1.20;;;25.70;73.20;;;;;;2348068;53;21089;-66
2021/06/28 07:04:59;;;;;;;2.20;1.20;;;25.80;73.10;;;;;;2345091;53;20910;-66
2021/06/28 07:07:25;;;;;;;2.22;1.23;;;25.90;73.00;;;;;;2588749;52;21800;-68
2021/06/28 07:09:51;;;;;;;2.47;1.30;;;26.00;72.90;;;;;;2346758;53;20934;-65
2021/06/28 07:12:18;;;;;;;2.28;1.30;;;26.10;72.90;;;;;;2588056;52;20998;-65
2021/06/28 07:14:44;;;;;;;2.40;1.20;;;26.10;72.70;;;;;;2351515;53;21044;-66
2021/06/28 07:17:10;;;;;;;2.67;1.17;;;26.30;73.30;;;;;;2347435;53;21399;-67
2021/06/28 07:19:36;;;;;;;2.33;1.20;;;26.30;72.60;;;;;;2351690;53;21385;-65
2021/06/28 07:22:04;;;;;;;2.40;1.20;;;26.40;72.30;;;;;;2586677;52;21501;-68
2021/06/28 07:24:30;;;;;;;2.05;1.17;;;26.50;72.10;;;;;;2346969;53;20972;-68
2021/06/28 07:27:00;;;;;;;1.98;0.80;;;26.60;71.70;;;;;;2346605;53;20938;-69
2021/06/28 07:29:28;;;;;;;3.22;0.90;;;26.70;71.80;;;;;;2352318;53;20915;-65
2021/06/28 07:31:58;;;;;;;1.58;0.90;;;26.70;71.40;;;;;;2342620;53;20936;-66
2021/06/28 07:34:24;;;;;;;2.15;1.02;;;26.80;70.70;;;;;;2533647;52;21558;-65
2021/06/28 07:36:53;;;;;;;2.58;1.27;;;26.90;70.80;;;;;;2328956;53;21009;-65
2021/06/28 07:39:21;;;;;;;5.18;1.35;;;27.00;70.20;;;;;;2347681;53;20985;-65
2021/06/28 07:41:49;;;;;;;2.70;1.25;;;27.10;69.70;;;;;;2345010;53;20982;-65
2021/06/28 07:44:16;;;;;;;2.20;1.10;;;27.10;69.20;;;;;;2349756;53;21000;-67
2021/06/28 07:46:43;;;;;;;2.17;1.10;;;27.20;69.10;;;;;;2345816;53;20982;-68
2021/06/28 07:49:09;;;;;;;2.62;1.02;;;27.20;69.20;;;;;;2577141;52;20926;-65
2021/06/28 07:51:36;;;;;;;2.50;1.23;;;27.30;69.30;;;;;;2498007;52;21089;-69
2021/06/28 07:54:06;;;;;;;2.35;1.30;;;27.30;69.10;;;;;;2589046;52;21026;-65
2021/06/28 07:56:33;;;;;;;2.08;1.20;;;27.40;68.30;;;;;;2347359;53;21388;-65
2021/06/28 07:58:59;;;;;;;2.30;1.20;;;27.40;68.70;;;;;;2347325;54;22003;-65
2021/06/28 08:01:25;;;;;;;2.75;1.30;;;27.50;68.70;;;;;;2343423;53;20932;-66
2021/06/28 08:03:52;;;;;;;2.28;1.00;;;27.60;68.70;;;;;;2346310;53;21052;-69
2021/06/28 08:06:19;;;;;;;1.90;0.90;;;27.60;68.60;;;;;;2589571;52;20970;-65
2021/06/28 08:08:47;;;;;;;2.10;1.10;;;27.70;68.80;;;;;;2344851;53;21812;-65
2021/06/28 08:11:14;;;;;;;3.47;1.17;;;27.70;68.50;;;;;;2344799;53;21485;-69
2021/06/28 08:13:42;;;;;;;1.85;1.02;;;27.80;68.70;;;;;;2353568;53;25031;-65
2021/06/28 08:16:09;;;;;;;2.47;1.15;;;27.80;69.40;;;;;;2347686;53;20946;-68
2021/06/28 08:18:35;;;;;;;2.00;1.12;;;27.90;68.70;;;;;;2341877;53;21456;-66
2021/06/28 08:21:04;;;;;;;2.20;1.05;;;27.90;68.40;;;;;;2588675;52;21076;-70
2021/06/28 08:23:34;;;;;;;2.60;1.17;;;28.00;68.20;;;;;;2348270;53;20947;-65
2021/06/28 08:26:00;;;;;;;2.42;1.25;;;28.10;67.90;;;;;;2587429;52;20920;-65
2021/06/28 08:28:26;;;;;;;2.60;1.00;;;28.10;68.00;;;;;;2589511;52;21794;-65
2021/06/28 08:30:53;;;;;;;2.33;1.30;;;28.20;68.20;;;;;;2346991;53;20966;-67
2021/06/28 08:33:19;;;;;;;2.40;1.08;;;28.20;67.90;;;;;;2345405;53;20949;-65
2021/06/28 08:35:45;;;;;;;2.37;1.05;;;28.30;68.20;;;;;;2348241;53;20965;-70
2021/06/28 08:38:12;;;;;;;2.30;1.00;;;28.30;68.20;;;;;;2589113;52;20924;-65
2021/06/28 08:40:38;;;;;;;2.05;0.98;;;28.40;68.30;;;;;;2349759;53;20934;-68
2021/06/28 08:43:05;;;;;;;1.77;0.90;;;28.50;68.30;;;;;;2352751;53;21093;-65
2021/06/28 08:45:36;;;;;;;2.00;0.90;;;28.60;67.80;;;;;;2343448;53;20948;-65
2021/06/28 08:48:04;;;;;;;2.25;1.23;;;28.60;66.90;;;;;;2346920;54;20919;-65
2021/06/28 08:50:32;;;;;;;2.50;1.30;;;28.70;67.00;;;;;;2345864;53;21029;-65
2021/06/28 08:52:58;;;;;;;2.00;1.10;;;28.70;66.80;;;;;;2346307;53;21472;-65
2021/06/28 08:55:24;;;;;;;2.80;1.10;;;28.70;66.80;;;;;;2587919;52;20962;-64
2021/06/28 08:57:53;;;;;;;2.42;1.10;;;28.80;66.60;;;;;;2343651;53;21695;-65
2021/06/28 09:00:19;;;;;;;2.17;1.00;;;28.80;66.70;;;;;;2344059;54;20984;-66
2021/06/28 09:03:34;;;;;;;1.92;1.00;;;28.80;66.60;;;;;;2338550;54;20961;-68
2021/06/28 09:06:15;;;;;;;2.10;1.00;;;28.80;64.80;;;;;;2348497;53;21464;-67
2021/06/28 09:08:55;;;;;;;1.90;1.00;;;28.80;66.20;;;;;;2346641;53;20938;-66
2021/06/28 09:11:26;;;;;;;;;;;28.90;64.80;;;;;;2350866;54;20974;-66
2021/06/28 09:13:55;;;;;;;1.48;0.73;;;28.90;65.40;;;;;;2346183;53;20672;-67
2021/06/28 09:16:25;;;;;;;2.15;0.90;;;28.90;66.50;;;;;;2346370;53;20938;-66
2021/06/28 09:19:01;;;;;;;1.87;0.93;;;28.90;65.90;;;;;;2355008;53;20978;-67
2021/06/28 09:22:09;;;;;;;2.30;1.05;;;28.90;65.80;;;;;;2348271;53;21014;-65
2021/06/28 09:24:41;;;;;;;2.45;1.12;;;29.00;64.50;;;;;;2404802;53;21098;-65
2021/06/28 09:27:31;;;;;;;2.65;1.17;;;29.00;65.60;;;;;;2348518;53;20978;-66
2021/06/28 09:29:59;;;;;;;3.55;1.20;;;29.00;64.00;;;;;;2350497;53;22035;-67
2021/06/28 09:32:26;;;;;;;2.42;1.30;;;29.00;65.70;;;;;;2349066;53;21077;-69
2021/06/28 09:34:55;;;;;;;2.42;1.20;;;29.00;65.20;;;;;;2348987;53;21501;-66
2021/06/28 09:37:25;;;;;;;2.50;1.20;;;29.00;65.10;;;;;;2588989;52;20984;-66
2021/06/28 09:39:57;;;;;;;3.37;1.02;;;29.00;65.10;;;;;;2346830;53;20950;-69
2021/06/28 09:42:24;;;;;;;2.47;1.05;;;29.00;64.80;;;;;;2450509;52;20938;-66
2021/06/28 09:45:15;;;;;;;5.62;0.98;;;29.00;65.20;;;;;;2350381;53;20990;-67
2021/06/28 09:47:44;;;;;;;2.40;1.40;;;29.10;64.20;;;;;;2589726;52;21011;-65
2021/06/28 09:50:18;;;;;;;2.08;1.20;;;29.10;65.60;;;;;;2345767;54;21469;-68
2021/06/28 09:52:54;;;;;;;2.12;1.20;;;29.10;64.90;;;;;;2521518;52;20972;-66
2021/06/28 09:55:34;;;;;;;2.10;1.15;;;29.10;65.30;;;;;;2347016;53;21043;-68
2021/06/28 09:58:08;;;;;;;2.03;1.12;;;29.10;64.30;;;;;;2345212;54;20984;-66
2021/06/28 10:00:51;;;;;;;1.90;1.00;;;29.10;64.50;;;;;;2344610;54;21008;-65
2021/06/28 10:03:49;;;;;;;2.50;1.20;;;29.20;65.10;;;;;;2346202;53;20940;-67
2021/06/28 10:09:08;;;;;;;3.85;1.10;;;29.20;65.70;;;;;;2344545;53;21104;-65
2021/06/28 10:11:41;;;;;;;2.55;1.10;;;29.30;65.50;;;;;;2591251;52;21008;-65
2021/06/28 10:14:07;;;;;;;2.47;1.27;;;29.30;66.00;;;;;;2351971;53;20990;-66
2021/06/28 10:16:35;;;;;;;2.45;1.35;;;29.40;65.90;;;;;;2343940;53;21003;-66
2021/06/28 10:19:04;;;;;;;2.80;1.12;;;29.40;65.70;;;;;;2348074;53;21435;-65
2021/06/28 10:21:34;;;;;;;2.40;1.40;;;29.40;65.70;;;;;;2589592;52;20916;-68
2021/06/28 10:24:00;;;;;;;2.50;1.20;;;29.50;65.80;;;;;;2348310;53;20914;-66
2021/06/28 10:26:26;;;;;;;2.50;1.02;;;29.60;65.70;;;;;;2345482;53;20920;-66
2021/06/28 10:28:53;;;;;;;2.17;1.05;;;29.60;65.60;;;;;;2591007;52;20957;-66
2021/06/28 10:31:20;;;;;;;3.33;1.40;;;29.70;65.50;;;;;;2354044;53;20977;-69
2021/06/28 10:33:54;;;;;;;2.40;1.27;;;29.70;65.30;;;;;;2343539;53;21791;-68
2021/06/28 10:36:20;;;;;;;2.65;1.27;;;29.70;64.50;;;;;;2344712;53;20940;-66
2021/06/28 10:38:54;;;;;;;3.85;1.52;;;29.80;65.30;;;;;;2587784;52;21761;-66
2021/06/28 10:41:49;;;;;;;2.05;1.20;;;29.80;64.30;;;;;;2402917;52;21777;-66
2021/06/28 10:44:16;;;;;;;2.55;1.08;;;29.90;63.60;;;;;;2343385;54;21393;-66
2021/06/28 10:46:44;;;;;;;2.10;1.10;;;29.90;65.30;;;;;;2348739;53;20977;-66
2021/06/28 10:49:11;;;;;;;2.55;1.27;;;29.90;65.00;;;;;;2345078;53;21008;-66
2021/06/28 10:51:48;;;;;;;3.10;1.25;;;29.90;64.90;;;;;;2590791;52;20948;-65
2021/06/28 10:54:19;;;;;;;2.30;1.17;;;30.00;64.10;;;;;;2587714;52;20920;-66
2021/06/28 10:56:55;;;;;;;2.20;1.10;;;30.00;65.00;;;;;;2347426;54;20980;-66
2021/06/28 10:59:23;;;;;;;2.22;1.20;;;30.00;64.20;;;;;;2348647;53;21022;-68
2021/06/28 11:01:59;;;;;;;2.28;1.20;;;30.10;65.20;;;;;;2565708;52;20917;-66
2021/06/28 11:04:30;;;;;;;2.10;1.20;;;30.10;64.10;;;;;;2343364;54;20936;-68
2021/06/28 11:07:05;;;;;;;1.70;0.93;;;30.10;64.90;;;;;;2372198;52;20937;-66
2021/06/28 11:09:54;;;;;;;2.37;1.15;;;30.20;64.00;;;;;;2345144;53;20943;-69
2021/06/28 11:12:40;;;;;;;2.25;1.17;;;30.20;63.20;;;;;;2347648;53;21016;-65
2021/06/28 11:15:25;;;;;;;2.10;1.02;;;30.30;62.80;;;;;;2383860;53;20941;-69
2021/06/28 11:17:56;;;;;;;5.30;1.50;;;30.30;62.00;;;;;;2347728;54;20994;-69
2021/06/28 11:20:40;;;;;;;3.08;1.35;;;30.30;64.20;;;;;;2346383;53;20912;-66
2021/06/28 11:23:19;;;;;;;2.25;0.88;;;30.30;62.30;;;;;;2346765;53;20961;-65
2021/06/28 11:25:55;;;;;;;4.78;1.48;;;30.40;63.30;;;;;;2346029;53;21753;-66
2021/06/28 11:28:46;;;;;;;2.90;1.37;;;30.40;62.80;;;;;;2543003;52;20994;-66
2021/06/28 11:31:16;;;;;;;2.75;1.35;;;30.40;63.30;;;;;;2351383;53;20981;-65
2021/06/28 11:33:49;;;;;;;2.30;1.23;;;30.40;63.90;;;;;;2349479;53;20990;-66
2021/06/28 11:37:16;;;;;;;2.03;0.95;;;30.40;62.60;;;;;;2345471;53;20981;-71
2021/06/28 11:39:59;;;;;;;2.10;1.10;;;30.50;62.30;;;;;;2330425;53;21022;-66
2021/06/28 11:42:30;;;;;;;2.00;1.00;;;30.50;62.30;;;;;;2349132;53;21050;-65
2021/06/28 11:45:33;;;;;;;3.45;1.40;;;30.40;63.40;;;;;;2346295;53;21561;-66
2021/06/28 11:48:04;;;;;;;2.20;1.23;;;30.40;63.60;;;;;;2350852;53;20930;-66
2021/06/28 11:50:33;;;;;;;2.67;1.23;;;30.50;63.30;;;;;;2345737;53;21034;-66
2021/06/28 11:53:13;;;;;;;2.45;1.15;;;30.50;63.50;;;;;;2346744;53;20928;-67
2021/06/28 11:55:42;;;;;;;2.05;1.10;;;30.50;62.50;;;;;;2348185;53;20970;-66
2021/06/28 11:58:11;;;;;;;2.30;1.20;;;30.50;64.00;;;;;;2349513;53;20990;-67
2021/06/28 12:00:48;;;;;;;2.80;1.30;;;30.50;63.70;;;;;;2329021;53;20962;-70
2021/06/28 12:03:24;;;;;;;2.40;1.23;;;30.60;64.20;;;;;;2416246;52;22188;-66
2021/06/28 12:05:52;;;;;;;1.87;0.95;;;30.70;63.30;;;;;;2343482;53;20996;-70
2021/06/28 12:08:25;;;;;;;2.22;1.20;;;30.70;64.10;;;;;;2352003;53;20962;-65
2021/06/28 12:10:56;;;;;;;2.47;1.20;;;30.70;63.30;;;;;;2347039;53;20934;-68
2021/06/28 12:13:35;;;;;;;4.47;1.58;;;30.80;63.30;;;;;;2330483;53;20987;-67
2021/06/28 12:16:26;;;;;;;3.33;1.12;;;30.80;62.30;;;;;;2346973;53;20946;-68
2021/06/28 12:19:10;;;;;;;2.30;1.12;;;30.80;62.00;;;;;;2426110;52;20989;-69
2021/06/28 12:21:39;;;;;;;2.35;1.20;;;30.90;62.60;;;;;;2360628;53;20939;-67
2021/06/28 12:24:09;;;;;;;2.37;1.30;;;30.90;63.90;;;;;;2348561;53;20946;-70
2021/06/28 12:26:37;;;;;;;2.17;0.93;;;31.00;63.80;;;;;;2346083;53;20950;-66
2021/06/28 12:30:55;;;;;;;2.20;1.20;;;31.00;63.80;;;;;;2587747;52;21414;-70
2021/06/28 12:33:22;;;;;;;2.05;1.02;;;31.10;62.60;;;;;;2351111;54;20970;-70
2021/06/28 12:35:57;;;;;;;1.98;1.00;;;31.20;63.80;;;;;;2430579;53;21048;-66
2021/06/28 12:38:23;;;;;;;2.08;0.90;;;31.20;62.30;;;;;;2461722;52;21052;-67
2021/06/28 12:40:49;;;;;;;3.22;1.52;;;31.20;63.70;;;;;;2356636;53;20974;-67
2021/06/28 12:43:19;;;;;;;2.67;1.33;;;31.30;63.80;;;;;;2352276;53;20965;-66
2021/06/28 12:45:49;;;;;;;2.72;1.58;;;31.30;64.30;;;;;;2350541;53;20995;-66
2021/06/28 12:48:18;;;;;;;2.72;1.20;;;31.40;62.80;;;;;;2346850;53;20948;-65
2021/06/28 12:50:51;;;;;;;2.28;1.10;;;31.40;62.80;;;;;;2345838;53;20948;-66
2021/06/28 12:53:17;;;;;;;2.33;1.25;;;31.40;62.20;;;;;;2350584;53;20966;-65
2021/06/28 12:55:43;;;;;;;3.80;1.42;;;31.40;63.00;;;;;;2347341;53;20929;-68
2021/06/28 12:58:17;;;;;;;2.50;1.20;;;31.50;63.00;;;;;;2344919;53;21656;-67
2021/06/28 13:00:49;;;;;;;3.45;1.23;;;31.50;62.80;;;;;;2591006;52;21025;-65
2021/06/28 13:03:22;;;;;;;3.67;1.40;;;31.50;62.50;;;;;;2349649;53;20934;-66
2021/06/28 13:05:59;;;;;;;3.15;1.00;;;31.60;62.50;;;;;;2344098;53;20941;-66